Terminal Aerodrome Forecast
Issued by NWS

Home | Current Version | Previous Version | Text Only | Print | Product List | Glossary On
Versions: 1 2 3 4 5 6 7 8 9 10 11 12 13 14 15 16 17 18 19 20 21 22 23 24 25 26 27 28
000
FTUS43 KDLH 281700
TAFHIB
TAF
KHIB 281739Z 2818/2918 17011KT P6SM OVC006
      TEMPO 2823/2901 5SM -FZDZSN
     FM290100 VRB03KT 5SM -FZDZSN BR OVC006
     FM290500 32008KT 6SM -FZDZSN BR OVC007
     FM290900 33015G28KT 5SM -SN SCT008 BKN015 OVC022=

USA.gov is the U.S. government's official web portal to all federal, state and local government web resources and services.